createdAt,value
2022-07-25T05:31:49.144Z,9.27
2022-07-25T05:34:51.042Z,7.45
2022-07-25T05:37:52.785Z,7.88
2022-07-25T05:40:54.594Z,8.27
2022-07-25T05:43:56.564Z,8.50
2022-07-25T05:46:58.369Z,7.60
2022-07-25T05:50:00.369Z,7.65
2022-07-25T05:53:02.117Z,7.75
2022-07-25T05:56:04.989Z,8.38
2022-07-25T05:59:06.806Z,7.95
2022-07-25T06:02:08.792Z,7.68
2022-07-25T06:05:10.664Z,8.57
2022-07-25T06:08:13.644Z,8.63
2022-07-25T06:11:15.414Z,8.85
2022-07-25T06:50:11.224Z,9.52
2022-07-25T06:53:13.386Z,9.05
2022-07-25T06:56:17.754Z,9.35
2022-07-25T06:59:19.929Z,9.25
2022-07-25T07:02:21.768Z,9.43
2022-07-25T07:05:24.782Z,9.02
2022-07-25T07:08:27.114Z,9.48
2022-07-25T07:11:29.655Z,9.55
2022-07-25T07:14:31.401Z,8.55
2022-07-25T07:17:33.547Z,9.43
2022-07-25T07:20:35.551Z,9.27
2022-07-25T07:23:37.702Z,9.20
2022-07-25T07:26:41.810Z,8.50
2022-07-25T07:29:43.575Z,8.80
2022-07-25T07:32:45.461Z,8.98
2022-07-25T07:35:47.426Z,8.45
2022-07-25T07:38:49.245Z,8.80
2022-07-25T07:41:51.039Z,9.55
2022-07-25T07:44:52.940Z,9.57
2022-07-25T07:47:55.416Z,8.93
2022-07-25T07:50:59.431Z,9.00
2022-07-25T07:54:21.108Z,9.13
2022-07-25T07:57:22.947Z,8.45
2022-07-25T08:00:25.082Z,8.57
2022-07-25T08:03:27.854Z,8.23
2022-07-25T08:06:30.201Z,9.50
2022-07-25T08:09:32.149Z,9.48
2022-07-25T08:12:34.116Z,8.52
2022-07-25T08:15:36.223Z,8.68
2022-07-25T08:18:38.279Z,8.93
2022-07-25T08:21:40.190Z,8.32
2022-07-25T08:24:41.972Z,7.82
2022-07-25T08:27:44.890Z,7.90
2022-07-25T08:30:47.086Z,8.00
2022-07-25T08:33:49.067Z,7.82
2022-07-25T08:36:50.904Z,8.63
2022-07-25T08:39:53.112Z,8.43
2022-07-25T08:42:56.462Z,8.23
2022-07-25T08:46:01.295Z,8.65
2022-07-25T08:49:03.430Z,7.75
2022-07-25T08:52:08.745Z,7.75
2022-07-25T08:55:14.849Z,7.25
2022-07-25T08:58:18.581Z,7.38
2022-07-25T09:01:20.391Z,9.00
2022-07-25T09:04:22.265Z,8.45
2022-07-25T09:07:31.551Z,7.15
2022-07-25T09:10:33.478Z,7.53
2022-07-25T09:13:38.575Z,8.45
2022-07-25T09:16:43.261Z,7.97
2022-07-25T09:19:56.007Z,6.95
2022-07-25T09:22:58.112Z,6.65
2022-07-25T09:26:15.390Z,7.57
2022-07-25T09:29:34.086Z,7.93
2022-07-25T09:32:35.858Z,7.65
2022-07-25T09:35:39.868Z,7.07
2022-07-25T09:38:52.176Z,7.10
2022-07-25T09:41:55.155Z,6.57
2022-07-25T09:45:12.507Z,7.55
2022-07-25T09:48:18.101Z,6.15
2022-07-25T09:51:20.095Z,6.85
2022-07-25T09:54:24.106Z,7.97
2022-07-25T09:57:27.896Z,7.10
2022-07-25T10:00:32.772Z,6.05
2022-07-25T10:03:51.837Z,6.43
2022-07-25T10:07:05.703Z,6.70
2022-07-25T10:13:14.114Z,7.40
2022-07-25T10:16:19.829Z,6.60
2022-07-25T10:19:50.767Z,6.43
2022-07-25T10:22:56.852Z,7.03
2022-07-25T10:26:19.571Z,6.93
2022-07-25T10:29:21.337Z,6.47
2022-07-25T10:32:32.577Z,6.03
2022-07-25T10:35:34.358Z,7.00
2022-07-25T10:38:41.100Z,6.40
2022-07-25T10:41:44.913Z,8.45
2022-07-25T10:44:51.183Z,6.82
2022-07-25T10:47:56.297Z,6.30
2022-07-25T10:51:02.336Z,6.28
2022-07-25T10:54:22.685Z,7.00
2022-07-25T10:57:27.217Z,5.95
2022-07-25T11:00:34.270Z,7.18
2022-07-25T11:03:36.046Z,5.22
2022-07-25T11:06:40.325Z,5.97
2022-07-25T11:09:43.816Z,6.45
2022-07-25T11:12:45.705Z,6.30
2022-07-25T11:15:48.158Z,7.38
2022-07-25T11:18:49.872Z,6.60
2022-07-25T11:21:55.704Z,5.60
2022-07-25T11:24:58.572Z,5.88
2022-07-25T11:28:01.086Z,7.03
2022-07-25T11:31:04.556Z,6.65
2022-07-25T11:34:06.430Z,6.28
2022-07-25T11:37:10.279Z,6.53
2022-07-25T11:40:16.327Z,6.00
2022-07-25T11:43:22.756Z,6.93
2022-07-25T11:46:24.537Z,5.72
2022-07-25T11:49:26.421Z,5.82
2022-07-25T11:52:33.640Z,6.50
2022-07-25T11:55:40.179Z,6.88
2022-07-25T11:58:42.007Z,6.43
2022-07-25T12:01:45.284Z,9.02
2022-07-25T12:04:54.741Z,8.23
2022-07-25T12:07:56.545Z,7.28
2022-07-25T12:10:58.420Z,6.70
2022-07-25T12:14:05.907Z,6.75
2022-07-25T12:17:07.784Z,6.60
2022-07-25T12:20:15.113Z,7.88
2022-07-25T12:23:17.072Z,7.20
2022-07-25T12:26:19.148Z,7.07
2022-07-25T12:29:21.007Z,6.95
2022-07-25T12:32:22.775Z,6.10
2022-07-25T12:35:25.998Z,7.22
2022-07-25T12:38:28.240Z,6.40
2022-07-25T12:41:30.181Z,6.72
2022-07-25T12:44:32.077Z,7.30
2022-07-25T12:47:34.065Z,7.57
2022-07-25T12:50:35.804Z,7.03
2022-07-25T12:53:41.981Z,6.03
2022-07-25T12:56:44.301Z,6.70
2022-07-25T12:59:46.266Z,7.25
2022-07-25T13:02:49.294Z,6.50
2022-07-25T13:05:51.071Z,6.55
2022-07-25T13:08:52.928Z,6.88
2022-07-25T13:11:55.327Z,6.47
2022-07-25T13:14:57.535Z,6.55
2022-07-25T13:17:59.343Z,6.78
2022-07-25T13:21:03.462Z,7.00
2022-07-25T13:27:08.115Z,6.70
2022-07-25T13:30:10.182Z,6.32
2022-07-25T13:33:11.944Z,6.50
2022-07-25T13:36:14.123Z,7.43
2022-07-25T13:39:16.100Z,7.53
2022-07-25T13:42:17.974Z,7.00
2022-07-25T13:45:19.702Z,6.93
2022-07-25T13:48:30.292Z,6.95
2022-07-25T13:51:33.071Z,7.07
2022-07-25T13:54:34.863Z,8.30
2022-07-25T13:57:37.181Z,7.45
2022-07-25T14:00:39.681Z,6.82
2022-07-25T14:03:41.614Z,7.60
2022-07-25T14:06:43.621Z,7.00
2022-07-25T14:09:45.454Z,6.97
2022-07-25T14:12:47.459Z,6.38
2022-07-25T14:15:49.577Z,7.13
2022-07-25T14:18:51.738Z,7.50
2022-07-25T14:21:53.510Z,6.65
2022-07-25T14:24:55.416Z,6.70
2022-07-25T14:27:58.981Z,6.80
2022-07-25T14:31:00.746Z,6.75
2022-07-25T14:34:02.539Z,6.43
2022-07-25T14:37:05.753Z,7.50
2022-07-25T14:40:10.978Z,7.00
2022-07-25T14:43:12.717Z,7.97
2022-07-25T14:46:15.647Z,7.00
2022-07-25T14:49:17.538Z,8.65
2022-07-25T14:52:19.610Z,7.05
2022-07-25T14:55:22.353Z,7.05
2022-07-25T14:58:24.272Z,6.25
2022-07-25T15:01:26.369Z,6.32
2022-07-25T15:04:28.448Z,7.07
2022-07-25T15:07:30.309Z,6.70
2022-07-25T15:10:32.220Z,6.50
2022-07-25T15:13:34.235Z,6.88
2022-07-25T15:16:36.105Z,6.97
2022-07-25T15:19:37.847Z,6.45
2022-07-25T15:22:39.739Z,6.80
2022-07-25T15:29:06.063Z,6.38
2022-07-25T15:32:09.399Z,6.07
2022-07-25T15:35:11.224Z,6.55
2022-07-25T15:38:15.548Z,6.15
2022-07-25T15:41:17.348Z,6.15
2022-07-25T15:44:19.190Z,6.45
2022-07-25T15:47:21.021Z,5.97
2022-07-25T15:50:23.445Z,5.40
2022-07-25T15:53:25.574Z,5.90
2022-07-25T15:56:28.069Z,5.65
2022-07-25T15:59:30.592Z,5.93
